Ashford, WA

9:49 PM PDT on April 25, 2015 (GMT -0700)
Paradise Estates | | Change Station
CLOSE
Current Station
Personal Weather Station
Location: Ashford, WA
Elevation: 1722 ft
Nearby Weather Stations

Elev 1722 ft 46.73 °N, 122.01 °W | Updated 6 seconds ago

Partly Cloudy
Partly Cloudy
35.1 °F
Feels Like 35 °F
N
0.0
Wind Variable Wind from East
Gusts 0.0 mph

Today
High -- | Low -- °F
--% Chance of Precip.
Yesterday
High -- | Low -- °F
Precip. -- in
6:03 AM 8:09 PM
First Quarter, 52% visible
Pressure 30.08 in
Visibility 10.0 miles
Clouds Clear
Windchill 35 °F
Dew Point 34 °F
Humidity 95%
Rainfall 0.07 in
Snow Depth Not available.
UV 0 out of 12
Pollen 6.80 out of 12
Air Quality Not available.
Flu Activity Regional
METAR KPLU 260435Z AUTO 00000KT 10SM CLR 05/04 A3008 RMK AO2

More Conditions Fewer Conditions

Pressure 30.08 in
Visibility 10.0 miles
Clouds Clear
Windchill 35 °F
Dew Point 34 °F
Humidity 95%
Rainfall 0.07 in
Snow Depth Not available.
UV 0 out of 12
Pollen 6.80 out of 12
Air Quality Not available.
Flu Activity Regional
METAR KPLU 260435Z AUTO 00000KT 10SM CLR 05/04 A3008 RMK AO2

More Conditions Fewer Conditions

The full scope of the disaster following a powerful 7.8-magnitude earthquake in Nepal may not come into view for days, but global charities are already sending emergency aid. Click to see how you can help.

10-Day Weather Forecast

Almanac

Astronomy

Apr. 25, 2015 Rise Set
Actual Time
Civil Twilight
Nautical Twilight
Astronomical Twilight
Moon
Length of Visible Light
Length of Day
Tomorrow will be .
, % of the Moon is Illuminated

Today's Extremes

State Highs State Lows

Community

WunderPhotos

Upload Photos

1,816,938 photos uploaded!

WunderBlogs® & News

Nearby

Air Quality

  Air Quality AQ Index Pollutant
Not available.

Snow Depth

Station Depth Elevation

Earthquake Activity

City Distance Mag. Time & Date
Minimum magnitude displayed is 2.5.

Coastal Water Temperatures

Place Temperature

Stations

Nearby Weather Stations

Station Location Temp. Windchill Dew Point Humidity Wind Precip. Elev Updated Type